Herzlich Willkommen beim LSV Bauland e.V. Boxberg / Unterschüpf

Wir heißen Sie herzlichst willkommen auf unseren Seiten.

Suchen Sie einen tollen Flugverein ? Einen neuen Platz für einen Ausflug?

oder möchten Sie dass Fliegen erlernen?

dann sind Sie bei uns genau richtig !

Wir wünschen Ihnen viel Spaß auf unseren Seiten.

Bis Bald auf dem Flugplatz Unterschüpf

wichtige Information für alle Piloten:

ab dem 01.01.2019 haben wir eine neue Frequenz  132.015 !!

 

 

aktuelle Wetterinfos vom Flugplatz Niederstetten Alle Angaben ohne Gewähr

ETHN 111220Z 27013KT 9999 BKN006 BKN018 02/00 Q1020 YLO YLO TEMPO GRN

Temperatur Niederstetten 2 Grad Celsius QNH Niederstetten 1020

Fliegen im Verein

Kompetenz seit über 50 Jahren

Piloten Infos

hier gehts zu den Piloten Informationen

More Info

Fallschirmspringen

Fallschirmspringen durch Sprungverein